sensor_id;sensor_type;location;lat;lon;timestamp;P1;durP1;ratioP1;P2;durP2;ratioP2
23990;SDS011;12205;50.600;4.608;2023-04-01T00:01:56;1.73;;;0.20;;
23990;SDS011;12205;50.600;4.608;2023-04-01T00:04:24;3.72;;;0.25;;
23990;SDS011;12205;50.600;4.608;2023-04-01T00:06:51;3.13;;;0.32;;
23990;SDS011;12205;50.600;4.608;2023-04-01T00:09:18;4.10;;;0.40;;
23990;SDS011;12205;50.600;4.608;2023-04-01T00:11:47;2.58;;;0.30;;
23990;SDS011;12205;50.600;4.608;2023-04-01T00:14:14;3.03;;;0.45;;
23990;SDS011;12205;50.600;4.608;2023-04-01T00:16:41;4.30;;;0.40;;
23990;SDS011;12205;50.600;4.608;2023-04-01T00:19:09;6.70;;;0.45;;
23990;SDS011;12205;50.600;4.608;2023-04-01T00:21:36;6.63;;;0.60;;
23990;SDS011;12205;50.600;4.608;2023-04-01T00:24:03;3.42;;;0.30;;
23990;SDS011;12205;50.600;4.608;2023-04-01T00:26:30;7.93;;;0.43;;
23990;SDS011;12205;50.600;4.608;2023-04-01T00:28:59;4.95;;;0.50;;
23990;SDS011;12205;50.600;4.608;2023-04-01T00:31:26;5.80;;;0.52;;
23990;SDS011;12205;50.600;4.608;2023-04-01T00:33:54;5.82;;;0.35;;
23990;SDS011;12205;50.600;4.608;2023-04-01T00:36:21;4.15;;;0.30;;
23990;SDS011;12205;50.600;4.608;2023-04-01T00:38:48;4.40;;;0.30;;
23990;SDS011;12205;50.600;4.608;2023-04-01T00:41:17;3.47;;;0.35;;
23990;SDS011;12205;50.600;4.608;2023-04-01T00:43:46;5.60;;;0.30;;
23990;SDS011;12205;50.600;4.608;2023-04-01T00:46:18;2.10;;;0.20;;
23990;SDS011;12205;50.600;4.608;2023-04-01T00:48:47;5.47;;;0.50;;
23990;SDS011;12205;50.600;4.608;2023-04-01T00:51:20;3.13;;;0.45;;
23990;SDS011;12205;50.600;4.608;2023-04-01T00:53:52;5.50;;;0.30;;
23990;SDS011;12205;50.600;4.608;2023-04-01T00:56:22;1.35;;;0.20;;
23990;SDS011;12205;50.600;4.608;2023-04-01T00:58:56;3.85;;;0.68;;
23990;SDS011;12205;50.600;4.608;2023-04-01T01:01:30;3.92;;;0.30;;
23990;SDS011;12205;50.600;4.608;2023-04-01T01:03:58;4.07;;;0.32;;
23990;SDS011;12205;50.600;4.608;2023-04-01T01:06:31;5.45;;;0.22;;
23990;SDS011;12205;50.600;4.608;2023-04-01T01:09:15;2.45;;;0.20;;
23990;SDS011;12205;50.600;4.608;2023-04-01T01:11:59;4.35;;;0.30;;
23990;SDS011;12205;50.600;4.608;2023-04-01T01:14:39;2.67;;;0.30;;
23990;SDS011;12205;50.600;4.608;2023-04-01T01:17:25;2.00;;;0.30;;
23990;SDS011;12205;50.600;4.608;2023-04-01T01:20:15;5.35;;;0.38;;
23990;SDS011;12205;50.600;4.608;2023-04-01T01:26:36;1.52;;;0.10;;
23990;SDS011;12205;50.600;4.608;2023-04-01T01:29:25;4.65;;;0.30;;
23990;SDS011;12205;50.600;4.608;2023-04-01T01:32:13;2.47;;;0.20;;
23990;SDS011;12205;50.600;4.608;2023-04-01T01:34:55;2.67;;;0.22;;
23990;SDS011;12205;50.600;4.608;2023-04-01T01:37:41;2.28;;;0.30;;
23990;SDS011;12205;50.600;4.608;2023-04-01T01:42:42;1.17;;;0.17;;
23990;SDS011;12205;50.600;4.608;2023-04-01T01:45:16;1.05;;;0.13;;
23990;SDS011;12205;50.600;4.608;2023-04-01T01:47:49;2.22;;;0.20;;
23990;SDS011;12205;50.600;4.608;2023-04-01T01:50:19;3.20;;;0.20;;
23990;SDS011;12205;50.600;4.608;2023-04-01T01:52:50;1.52;;;0.20;;
23990;SDS011;12205;50.600;4.608;2023-04-01T01:55:26;1.65;;;0.20;;
23990;SDS011;12205;50.600;4.608;2023-04-01T01:57:57;1.20;;;0.10;;
23990;SDS011;12205;50.600;4.608;2023-04-01T02:00:33;1.55;;;0.20;;
23990;SDS011;12205;50.600;4.608;2023-04-01T02:03:02;3.33;;;0.13;;
23990;SDS011;12205;50.600;4.608;2023-04-01T02:05:32;2.83;;;0.20;;
23990;SDS011;12205;50.600;4.608;2023-04-01T02:08:07;0.60;;;0.10;;
23990;SDS011;12205;50.600;4.608;2023-04-01T02:10:41;2.13;;;0.20;;
23990;SDS011;12205;50.600;4.608;2023-04-01T02:13:17;0.43;;;0.10;;
23990;SDS011;12205;50.600;4.608;2023-04-01T02:15:53;1.77;;;0.25;;
23990;SDS011;12205;50.600;4.608;2023-04-01T02:18:28;0.63;;;0.13;;
23990;SDS011;12205;50.600;4.608;2023-04-01T02:21:01;0.45;;;0.13;;
23990;SDS011;12205;50.600;4.608;2023-04-01T02:23:32;2.47;;;0.30;;
23990;SDS011;12205;50.600;4.608;2023-04-01T02:26:02;3.05;;;0.70;;
23990;SDS011;12205;50.600;4.608;2023-04-01T02:28:33;2.15;;;0.50;;
23990;SDS011;12205;50.600;4.608;2023-04-01T02:31:06;2.45;;;0.80;;
23990;SDS011;12205;50.600;4.608;2023-04-01T02:33:38;3.78;;;0.82;;
23990;SDS011;12205;50.600;4.608;2023-04-01T02:36:07;2.17;;;0.90;;
23990;SDS011;12205;50.600;4.608;2023-04-01T02:38:39;5.93;;;0.98;;
23990;SDS011;12205;50.600;4.608;2023-04-01T02:41:07;1.95;;;0.60;;
23990;SDS011;12205;50.600;4.608;2023-04-01T02:43:35;3.58;;;0.60;;
23990;SDS011;12205;50.600;4.608;2023-04-01T02:46:02;6.90;;;1.00;;
23990;SDS011;12205;50.600;4.608;2023-04-01T02:48:29;6.60;;;0.80;;
23990;SDS011;12205;50.600;4.608;2023-04-01T02:50:57;3.78;;;0.52;;
23990;SDS011;12205;50.600;4.608;2023-04-01T02:53:25;2.35;;;0.60;;
23990;SDS011;12205;50.600;4.608;2023-04-01T02:55:52;5.07;;;0.70;;
23990;SDS011;12205;50.600;4.608;2023-04-01T02:58:20;8.25;;;1.10;;
23990;SDS011;12205;50.600;4.608;2023-04-01T03:00:47;4.40;;;0.70;;
23990;SDS011;12205;50.600;4.608;2023-04-01T03:03:14;6.60;;;1.10;;
23990;SDS011;12205;50.600;4.608;2023-04-01T03:05:41;4.68;;;0.88;;
23990;SDS011;12205;50.600;4.608;2023-04-01T03:08:08;4.60;;;0.98;;
23990;SDS011;12205;50.600;4.608;2023-04-01T03:10:38;4.82;;;0.80;;
23990;SDS011;12205;50.600;4.608;2023-04-01T03:13:05;4.82;;;0.98;;
23990;SDS011;12205;50.600;4.608;2023-04-01T03:15:33;3.38;;;1.00;;
23990;SDS011;12205;50.600;4.608;2023-04-01T03:18:01;5.28;;;1.00;;
23990;SDS011;12205;50.600;4.608;2023-04-01T03:20:28;11.65;;;1.80;;
23990;SDS011;12205;50.600;4.608;2023-04-01T03:22:55;5.70;;;0.90;;
23990;SDS011;12205;50.600;4.608;2023-04-01T03:25:22;5.72;;;1.00;;
23990;SDS011;12205;50.600;4.608;2023-04-01T03:27:51;4.10;;;1.23;;
23990;SDS011;12205;50.600;4.608;2023-04-01T03:30:18;6.85;;;1.27;;
23990;SDS011;12205;50.600;4.608;2023-04-01T03:32:49;8.93;;;1.70;;
23990;SDS011;12205;50.600;4.608;2023-04-01T03:35:16;6.90;;;1.40;;
23990;SDS011;12205;50.600;4.608;2023-04-01T03:37:45;3.88;;;1.10;;
23990;SDS011;12205;50.600;4.608;2023-04-01T03:40:12;7.65;;;1.48;;
23990;SDS011;12205;50.600;4.608;2023-04-01T03:42:39;5.93;;;1.30;;
23990;SDS011;12205;50.600;4.608;2023-04-01T03:45:09;4.65;;;1.20;;
23990;SDS011;12205;50.600;4.608;2023-04-01T03:47:38;8.80;;;1.53;;
23990;SDS011;12205;50.600;4.608;2023-04-01T03:50:06;7.72;;;1.20;;
23990;SDS011;12205;50.600;4.608;2023-04-01T03:52:35;3.92;;;1.20;;
23990;SDS011;12205;50.600;4.608;2023-04-01T03:55:02;4.60;;;1.15;;
23990;SDS011;12205;50.600;4.608;2023-04-01T03:57:31;4.03;;;1.05;;
23990;SDS011;12205;50.600;4.608;2023-04-01T04:00:06;5.78;;;1.40;;
23990;SDS011;12205;50.600;4.608;2023-04-01T04:02:39;7.38;;;1.30;;
23990;SDS011;12205;50.600;4.608;2023-04-01T04:05:08;5.75;;;1.58;;
23990;SDS011;12205;50.600;4.608;2023-04-01T04:07:36;8.70;;;1.90;;
23990;SDS011;12205;50.600;4.608;2023-04-01T04:10:07;6.43;;;2.00;;
23990;SDS011;12205;50.600;4.608;2023-04-01T04:12:34;10.02;;;1.80;;
23990;SDS011;12205;50.600;4.608;2023-04-01T04:15:02;9.15;;;2.10;;
23990;SDS011;12205;50.600;4.608;2023-04-01T04:17:31;8.63;;;2.03;;
23990;SDS011;12205;50.600;4.608;2023-04-01T04:19:58;3.92;;;1.40;;
23990;SDS011;12205;50.600;4.608;2023-04-01T04:22:25;13.02;;;2.20;;
23990;SDS011;12205;50.600;4.608;2023-04-01T04:24:53;7.03;;;2.10;;
23990;SDS011;12205;50.600;4.608;2023-04-01T04:27:20;6.45;;;1.50;;
23990;SDS011;12205;50.600;4.608;2023-04-01T04:30:05;5.80;;;1.40;;
23990;SDS011;12205;50.600;4.608;2023-04-01T04:32:37;5.57;;;1.73;;
23990;SDS011;12205;50.600;4.608;2023-04-01T04:35:06;7.70;;;1.83;;
23990;SDS011;12205;50.600;4.608;2023-04-01T04:37:34;8.20;;;1.80;;
23990;SDS011;12205;50.600;4.608;2023-04-01T04:40:03;9.48;;;2.05;;
23990;SDS011;12205;50.600;4.608;2023-04-01T04:42:32;5.25;;;1.70;;
23990;SDS011;12205;50.600;4.608;2023-04-01T04:45:05;5.20;;;1.67;;
23990;SDS011;12205;50.600;4.608;2023-04-01T04:47:34;10.45;;;2.40;;
23990;SDS011;12205;50.600;4.608;2023-04-01T04:50:03;5.88;;;1.77;;
23990;SDS011;12205;50.600;4.608;2023-04-01T04:52:32;6.65;;;1.58;;
23990;SDS011;12205;50.600;4.608;2023-04-01T04:54:59;9.60;;;2.00;;
23990;SDS011;12205;50.600;4.608;2023-04-01T04:57:26;11.68;;;2.50;;
23990;SDS011;12205;50.600;4.608;2023-04-01T04:59:54;8.30;;;1.90;;
23990;SDS011;12205;50.600;4.608;2023-04-01T05:02:40;4.40;;;1.23;;
23990;SDS011;12205;50.600;4.608;2023-04-01T05:05:07;7.38;;;1.52;;
23990;SDS011;12205;50.600;4.608;2023-04-01T05:07:36;3.97;;;1.20;;
23990;SDS011;12205;50.600;4.608;2023-04-01T05:10:04;2.97;;;0.90;;
23990;SDS011;12205;50.600;4.608;2023-04-01T05:12:32;4.05;;;1.10;;
23990;SDS011;12205;50.600;4.608;2023-04-01T05:15:02;4.20;;;1.30;;
23990;SDS011;12205;50.600;4.608;2023-04-01T05:17:31;3.63;;;0.90;;
23990;SDS011;12205;50.600;4.608;2023-04-01T05:20:00;2.72;;;1.08;;
23990;SDS011;12205;50.600;4.608;2023-04-01T05:22:28;3.50;;;1.10;;
23990;SDS011;12205;50.600;4.608;2023-04-01T05:24:55;4.05;;;1.05;;
23990;SDS011;12205;50.600;4.608;2023-04-01T05:27:23;3.88;;;1.17;;
23990;SDS011;12205;50.600;4.608;2023-04-01T05:29:50;4.68;;;1.05;;
23990;SDS011;12205;50.600;4.608;2023-04-01T05:32:44;4.53;;;1.20;;
23990;SDS011;12205;50.600;4.608;2023-04-01T05:35:12;4.75;;;1.17;;
23990;SDS011;12205;50.600;4.608;2023-04-01T05:37:40;4.30;;;1.10;;
23990;SDS011;12205;50.600;4.608;2023-04-01T05:40:08;1.58;;;0.73;;
23990;SDS011;12205;50.600;4.608;2023-04-01T05:42:36;5.40;;;1.10;;
23990;SDS011;12205;50.600;4.608;2023-04-01T05:45:03;2.95;;;1.00;;
23990;SDS011;12205;50.600;4.608;2023-04-01T05:47:58;3.45;;;0.93;;
23990;SDS011;12205;50.600;4.608;2023-04-01T05:50:30;3.30;;;1.00;;
23990;SDS011;12205;50.600;4.608;2023-04-01T05:52:57;2.92;;;0.90;;
23990;SDS011;12205;50.600;4.608;2023-04-01T05:55:25;4.05;;;0.88;;
23990;SDS011;12205;50.600;4.608;2023-04-01T05:57:52;2.85;;;0.95;;
23990;SDS011;12205;50.600;4.608;2023-04-01T06:00:19;5.47;;;1.10;;
23990;SDS011;12205;50.600;4.608;2023-04-01T06:02:47;4.22;;;1.23;;
23990;SDS011;12205;50.600;4.608;2023-04-01T06:05:15;5.18;;;1.10;;
23990;SDS011;12205;50.600;4.608;2023-04-01T06:07:49;2.33;;;0.90;;
23990;SDS011;12205;50.600;4.608;2023-04-01T06:10:23;4.20;;;1.20;;
23990;SDS011;12205;50.600;4.608;2023-04-01T06:13:06;5.15;;;1.33;;
23990;SDS011;12205;50.600;4.608;2023-04-01T06:15:47;3.55;;;1.17;;
23990;SDS011;12205;50.600;4.608;2023-04-01T06:24:52;3.65;;;1.15;;
23990;SDS011;12205;50.600;4.608;2023-04-01T06:27:43;4.00;;;1.08;;
23990;SDS011;12205;50.600;4.608;2023-04-01T06:30:33;3.20;;;1.20;;
23990;SDS011;12205;50.600;4.608;2023-04-01T06:33:16;3.35;;;1.33;;
23990;SDS011;12205;50.600;4.608;2023-04-01T06:36:13;4.20;;;1.27;;
23990;SDS011;12205;50.600;4.608;2023-04-01T06:39:09;4.25;;;1.35;;
23990;SDS011;12205;50.600;4.608;2023-04-01T06:42:05;5.15;;;1.60;;
23990;SDS011;12205;50.600;4.608;2023-04-01T06:45:03;4.93;;;1.42;;
23990;SDS011;12205;50.600;4.608;2023-04-01T06:48:15;4.15;;;1.55;;
23990;SDS011;12205;50.600;4.608;2023-04-01T06:51:24;6.13;;;1.75;;
23990;SDS011;12205;50.600;4.608;2023-04-01T06:54:20;4.53;;;1.80;;
23990;SDS011;12205;50.600;4.608;2023-04-01T06:57:16;5.47;;;2.00;;
23990;SDS011;12205;50.600;4.608;2023-04-01T06:59:56;7.90;;;2.33;;
23990;SDS011;12205;50.600;4.608;2023-04-01T07:02:29;6.35;;;2.15;;
23990;SDS011;12205;50.600;4.608;2023-04-01T07:05:05;6.05;;;2.05;;
23990;SDS011;12205;50.600;4.608;2023-04-01T07:07:36;5.60;;;1.30;;
23990;SDS011;12205;50.600;4.608;2023-04-01T07:10:13;5.85;;;2.17;;
23990;SDS011;12205;50.600;4.608;2023-04-01T07:13:12;7.65;;;2.10;;
23990;SDS011;12205;50.600;4.608;2023-04-01T07:16:05;11.80;;;2.65;;
23990;SDS011;12205;50.600;4.608;2023-04-01T07:18:42;5.40;;;1.80;;
23990;SDS011;12205;50.600;4.608;2023-04-01T07:21:25;4.43;;;1.63;;
23990;SDS011;12205;50.600;4.608;2023-04-01T07:23:59;5.90;;;1.50;;
23990;SDS011;12205;50.600;4.608;2023-04-01T07:26:41;5.28;;;1.80;;
23990;SDS011;12205;50.600;4.608;2023-04-01T07:29:14;4.88;;;1.70;;
23990;SDS011;12205;50.600;4.608;2023-04-01T07:34:47;5.40;;;1.70;;
23990;SDS011;12205;50.600;4.608;2023-04-01T07:37:30;5.93;;;1.50;;
23990;SDS011;12205;50.600;4.608;2023-04-01T07:40:11;4.63;;;1.20;;
23990;SDS011;12205;50.600;4.608;2023-04-01T07:42:57;3.83;;;1.30;;
23990;SDS011;12205;50.600;4.608;2023-04-01T07:45:54;5.05;;;1.60;;
23990;SDS011;12205;50.600;4.608;2023-04-01T07:48:36;4.88;;;1.70;;
23990;SDS011;12205;50.600;4.608;2023-04-01T07:51:14;6.45;;;1.70;;
23990;SDS011;12205;50.600;4.608;2023-04-01T07:53:51;4.70;;;1.50;;
23990;SDS011;12205;50.600;4.608;2023-04-01T07:56:32;4.53;;;1.60;;
23990;SDS011;12205;50.600;4.608;2023-04-01T07:59:12;6.50;;;1.73;;
23990;SDS011;12205;50.600;4.608;2023-04-01T08:01:59;6.72;;;1.83;;
23990;SDS011;12205;50.600;4.608;2023-04-01T08:04:43;5.40;;;1.50;;
23990;SDS011;12205;50.600;4.608;2023-04-01T08:07:22;4.55;;;1.60;;
23990;SDS011;12205;50.600;4.608;2023-04-01T08:10:13;7.55;;;2.00;;
23990;SDS011;12205;50.600;4.608;2023-04-01T08:13:12;3.80;;;1.45;;
23990;SDS011;12205;50.600;4.608;2023-04-01T08:16:29;3.10;;;1.30;;
23990;SDS011;12205;50.600;4.608;2023-04-01T08:19:10;5.85;;;1.20;;
23990;SDS011;12205;50.600;4.608;2023-04-01T08:21:55;4.20;;;1.20;;
23990;SDS011;12205;50.600;4.608;2023-04-01T08:24:33;3.38;;;1.20;;
23990;SDS011;12205;50.600;4.608;2023-04-01T08:27:09;4.80;;;1.30;;
23990;SDS011;12205;50.600;4.608;2023-04-01T08:29:47;5.90;;;1.25;;
23990;SDS011;12205;50.600;4.608;2023-04-01T08:32:22;3.28;;;1.10;;
23990;SDS011;12205;50.600;4.608;2023-04-01T08:35:01;4.20;;;1.10;;
23990;SDS011;12205;50.600;4.608;2023-04-01T08:37:41;3.38;;;1.00;;
23990;SDS011;12205;50.600;4.608;2023-04-01T08:43:16;2.53;;;1.00;;
23990;SDS011;12205;50.600;4.608;2023-04-01T08:46:13;3.88;;;0.98;;
23990;SDS011;12205;50.600;4.608;2023-04-01T08:49:17;2.17;;;0.90;;
23990;SDS011;12205;50.600;4.608;2023-04-01T08:52:23;4.90;;;1.20;;
23990;SDS011;12205;50.600;4.608;2023-04-01T08:55:15;3.13;;;1.23;;
23990;SDS011;12205;50.600;4.608;2023-04-01T08:58:12;4.22;;;0.90;;
23990;SDS011;12205;50.600;4.608;2023-04-01T09:01:13;1.60;;;0.70;;
23990;SDS011;12205;50.600;4.608;2023-04-01T09:03:58;2.22;;;0.75;;
23990;SDS011;12205;50.600;4.608;2023-04-01T09:06:51;2.85;;;0.70;;
23990;SDS011;12205;50.600;4.608;2023-04-01T09:10:02;2.63;;;0.75;;
23990;SDS011;12205;50.600;4.608;2023-04-01T09:13:53;2.15;;;0.70;;
23990;SDS011;12205;50.600;4.608;2023-04-01T09:16:52;1.30;;;0.57;;
23990;SDS011;12205;50.600;4.608;2023-04-01T09:19:50;2.95;;;0.57;;
23990;SDS011;12205;50.600;4.608;2023-04-01T09:22:49;1.55;;;0.60;;
23990;SDS011;12205;50.600;4.608;2023-04-01T09:25:44;1.45;;;0.68;;
23990;SDS011;12205;50.600;4.608;2023-04-01T09:28:26;3.03;;;0.50;;
23990;SDS011;12205;50.600;4.608;2023-04-01T09:31:04;3.40;;;0.60;;
23990;SDS011;12205;50.600;4.608;2023-04-01T09:37:26;1.85;;;0.45;;
23990;SDS011;12205;50.600;4.608;2023-04-01T09:40:14;2.33;;;0.38;;
23990;SDS011;12205;50.600;4.608;2023-04-01T09:46:06;1.02;;;0.30;;
23990;SDS011;12205;50.600;4.608;2023-04-01T09:51:53;0.85;;;0.30;;
23990;SDS011;12205;50.600;4.608;2023-04-01T09:54:42;1.35;;;0.40;;
23990;SDS011;12205;50.600;4.608;2023-04-01T09:57:37;0.93;;;0.30;;
23990;SDS011;12205;50.600;4.608;2023-04-01T10:07:43;0.80;;;0.30;;
23990;SDS011;12205;50.600;4.608;2023-04-01T10:50:58;1.70;;;0.47;;
23990;SDS011;12205;50.600;4.608;2023-04-01T10:53:42;1.38;;;0.45;;
23990;SDS011;12205;50.600;4.608;2023-04-01T10:57:11;1.73;;;0.40;;
23990;SDS011;12205;50.600;4.608;2023-04-01T11:01:03;1.02;;;0.30;;
23990;SDS011;12205;50.600;4.608;2023-04-01T11:37:48;3.15;;;0.60;;
23990;SDS011;12205;50.600;4.608;2023-04-01T11:40:56;2.15;;;0.70;;
23990;SDS011;12205;50.600;4.608;2023-04-01T11:44:10;29.90;;;3.95;;
23990;SDS011;12205;50.600;4.608;2023-04-01T11:50:21;1.17;;;0.45;;
23990;SDS011;12205;50.600;4.608;2023-04-01T11:53:18;2.88;;;0.82;;
23990;SDS011;12205;50.600;4.608;2023-04-01T11:56:01;2.05;;;0.52;;
23990;SDS011;12205;50.600;4.608;2023-04-01T11:58:58;1.15;;;0.40;;
23990;SDS011;12205;50.600;4.608;2023-04-01T12:01:58;1.75;;;0.60;;
23990;SDS011;12205;50.600;4.608;2023-04-01T12:04:49;2.92;;;0.50;;
23990;SDS011;12205;50.600;4.608;2023-04-01T12:07:55;2.03;;;0.50;;
23990;SDS011;12205;50.600;4.608;2023-04-01T12:10:39;1.40;;;0.52;;
23990;SDS011;12205;50.600;4.608;2023-04-01T12:13:17;2.05;;;0.68;;
23990;SDS011;12205;50.600;4.608;2023-04-01T12:16:04;1.75;;;0.70;;
23990;SDS011;12205;50.600;4.608;2023-04-01T12:19:04;4.20;;;0.70;;
23990;SDS011;12205;50.600;4.608;2023-04-01T12:21:45;1.60;;;0.55;;
23990;SDS011;12205;50.600;4.608;2023-04-01T12:24:29;1.65;;;0.50;;
23990;SDS011;12205;50.600;4.608;2023-04-01T12:27:22;2.63;;;0.65;;
23990;SDS011;12205;50.600;4.608;2023-04-01T12:33:22;3.67;;;0.70;;
23990;SDS011;12205;50.600;4.608;2023-04-01T12:36:18;2.85;;;0.85;;
23990;SDS011;12205;50.600;4.608;2023-04-01T12:39:22;2.60;;;0.95;;
23990;SDS011;12205;50.600;4.608;2023-04-01T12:42:07;2.90;;;0.90;;
23990;SDS011;12205;50.600;4.608;2023-04-01T12:45:00;3.08;;;0.52;;
23990;SDS011;12205;50.600;4.608;2023-04-01T12:47:57;1.67;;;0.55;;
23990;SDS011;12205;50.600;4.608;2023-04-01T12:50:56;1.02;;;0.45;;
23990;SDS011;12205;50.600;4.608;2023-04-01T13:03:53;0.60;;;0.20;;
23990;SDS011;12205;50.600;4.608;2023-04-01T13:06:49;0.90;;;0.20;;
23990;SDS011;12205;50.600;4.608;2023-04-01T13:09:39;2.47;;;0.38;;
23990;SDS011;12205;50.600;4.608;2023-04-01T13:12:26;0.80;;;0.30;;
23990;SDS011;12205;50.600;4.608;2023-04-01T13:15:25;2.42;;;0.40;;
23990;SDS011;12205;50.600;4.608;2023-04-01T13:18:11;0.50;;;0.28;;
23990;SDS011;12205;50.600;4.608;2023-04-01T13:20:49;5.68;;;0.43;;
23990;SDS011;12205;50.600;4.608;2023-04-01T13:23:37;1.75;;;0.40;;
23990;SDS011;12205;50.600;4.608;2023-04-01T13:26:22;1.45;;;0.40;;
23990;SDS011;12205;50.600;4.608;2023-04-01T13:28:59;1.00;;;0.30;;
23990;SDS011;12205;50.600;4.608;2023-04-01T13:31:44;1.75;;;0.63;;
23990;SDS011;12205;50.600;4.608;2023-04-01T13:34:39;1.70;;;0.52;;
23990;SDS011;12205;50.600;4.608;2023-04-01T13:37:25;2.92;;;0.70;;
23990;SDS011;12205;50.600;4.608;2023-04-01T13:40:22;1.88;;;0.60;;
23990;SDS011;12205;50.600;4.608;2023-04-01T13:43:02;3.15;;;0.85;;
23990;SDS011;12205;50.600;4.608;2023-04-01T13:45:42;2.60;;;0.60;;
23990;SDS011;12205;50.600;4.608;2023-04-01T13:48:41;2.92;;;0.80;;
23990;SDS011;12205;50.600;4.608;2023-04-01T13:51:44;2.33;;;0.70;;
23990;SDS011;12205;50.600;4.608;2023-04-01T13:54:33;3.23;;;0.60;;
23990;SDS011;12205;50.600;4.608;2023-04-01T13:57:30;1.60;;;0.60;;
23990;SDS011;12205;50.600;4.608;2023-04-01T14:00:23;2.45;;;0.80;;
23990;SDS011;12205;50.600;4.608;2023-04-01T14:03:28;7.43;;;0.88;;
23990;SDS011;12205;50.600;4.608;2023-04-01T14:06:09;3.03;;;0.80;;
23990;SDS011;12205;50.600;4.608;2023-04-01T14:12:13;3.22;;;0.90;;
23990;SDS011;12205;50.600;4.608;2023-04-01T14:18:10;3.63;;;1.17;;
23990;SDS011;12205;50.600;4.608;2023-04-01T14:21:05;3.65;;;0.85;;
23990;SDS011;12205;50.600;4.608;2023-04-01T14:24:07;3.78;;;0.80;;
23990;SDS011;12205;50.600;4.608;2023-04-01T14:30:08;4.03;;;0.90;;
23990;SDS011;12205;50.600;4.608;2023-04-01T14:33:05;3.90;;;0.90;;
23990;SDS011;12205;50.600;4.608;2023-04-01T14:35:49;2.50;;;0.85;;
23990;SDS011;12205;50.600;4.608;2023-04-01T14:38:31;2.28;;;0.60;;
23990;SDS011;12205;50.600;4.608;2023-04-01T14:41:19;3.28;;;0.70;;
23990;SDS011;12205;50.600;4.608;2023-04-01T14:47:46;2.08;;;0.60;;
23990;SDS011;12205;50.600;4.608;2023-04-01T14:50:20;3.28;;;0.47;;
23990;SDS011;12205;50.600;4.608;2023-04-01T14:52:56;2.28;;;0.60;;
23990;SDS011;12205;50.600;4.608;2023-04-01T14:55:44;1.95;;;0.40;;
23990;SDS011;12205;50.600;4.608;2023-04-01T14:58:19;3.05;;;0.50;;
23990;SDS011;12205;50.600;4.608;2023-04-01T15:00:54;1.83;;;0.47;;
23990;SDS011;12205;50.600;4.608;2023-04-01T15:03:47;1.45;;;0.50;;
23990;SDS011;12205;50.600;4.608;2023-04-01T15:06:35;1.88;;;0.40;;
23990;SDS011;12205;50.600;4.608;2023-04-01T15:09:21;1.17;;;0.38;;
23990;SDS011;12205;50.600;4.608;2023-04-01T15:12:07;4.20;;;0.50;;
23990;SDS011;12205;50.600;4.608;2023-04-01T15:14:52;1.33;;;0.30;;
23990;SDS011;12205;50.600;4.608;2023-04-01T15:17:45;3.03;;;0.43;;
23990;SDS011;12205;50.600;4.608;2023-04-01T15:20:36;2.38;;;0.30;;
23990;SDS011;12205;50.600;4.608;2023-04-01T15:23:29;0.90;;;0.20;;
23990;SDS011;12205;50.600;4.608;2023-04-01T15:26:11;0.98;;;0.20;;
23990;SDS011;12205;50.600;4.608;2023-04-01T15:29:01;0.73;;;0.10;;
23990;SDS011;12205;50.600;4.608;2023-04-01T15:31:57;1.05;;;0.17;;
23990;SDS011;12205;50.600;4.608;2023-04-01T15:34:41;0.38;;;0.10;;
23990;SDS011;12205;50.600;4.608;2023-04-01T15:37:22;0.17;;;0.10;;
23990;SDS011;12205;50.600;4.608;2023-04-01T15:40:08;0.70;;;0.17;;
23990;SDS011;12205;50.600;4.608;2023-04-01T15:42:53;1.23;;;0.10;;
23990;SDS011;12205;50.600;4.608;2023-04-01T15:45:39;0.55;;;0.10;;
23990;SDS011;12205;50.600;4.608;2023-04-01T15:51:23;0.98;;;0.10;;
23990;SDS011;12205;50.600;4.608;2023-04-01T15:54:23;0.50;;;0.15;;
23990;SDS011;12205;50.600;4.608;2023-04-01T15:57:24;0.43;;;0.13;;
23990;SDS011;12205;50.600;4.608;2023-04-01T16:00:04;0.63;;;0.10;;
23990;SDS011;12205;50.600;4.608;2023-04-01T16:02:54;0.45;;;0.10;;
23990;SDS011;12205;50.600;4.608;2023-04-01T16:05:51;0.47;;;0.10;;
23990;SDS011;12205;50.600;4.608;2023-04-01T16:08:44;0.15;;;0.10;;
23990;SDS011;12205;50.600;4.608;2023-04-01T16:11:37;0.50;;;0.10;;
23990;SDS011;12205;50.600;4.608;2023-04-01T16:17:00;0.50;;;0.20;;
23990;SDS011;12205;50.600;4.608;2023-04-01T16:19:47;1.95;;;0.17;;
23990;SDS011;12205;50.600;4.608;2023-04-01T16:22:22;1.60;;;0.30;;
23990;SDS011;12205;50.600;4.608;2023-04-01T16:24:59;0.95;;;0.13;;
23990;SDS011;12205;50.600;4.608;2023-04-01T16:27:47;1.92;;;0.20;;
23990;SDS011;12205;50.600;4.608;2023-04-01T16:30:26;1.02;;;0.20;;
23990;SDS011;12205;50.600;4.608;2023-04-01T16:33:03;0.32;;;0.10;;
23990;SDS011;12205;50.600;4.608;2023-04-01T16:35:41;0.40;;;0.10;;
23990;SDS011;12205;50.600;4.608;2023-04-01T16:38:21;1.42;;;0.10;;
23990;SDS011;12205;50.600;4.608;2023-04-01T16:41:04;0.93;;;0.20;;
23990;SDS011;12205;50.600;4.608;2023-04-01T16:43:41;1.27;;;0.30;;
23990;SDS011;12205;50.600;4.608;2023-04-01T16:46:15;0.65;;;0.20;;
23990;SDS011;12205;50.600;4.608;2023-04-01T16:48:59;0.75;;;0.20;;
23990;SDS011;12205;50.600;4.608;2023-04-01T16:51:43;0.10;;;0.00;;
23990;SDS011;12205;50.600;4.608;2023-04-01T16:54:27;0.38;;;0.10;;
23990;SDS011;12205;50.600;4.608;2023-04-01T16:57:03;1.27;;;0.10;;
23990;SDS011;12205;50.600;4.608;2023-04-01T16:59:46;2.28;;;0.35;;
23990;SDS011;12205;50.600;4.608;2023-04-01T17:02:28;0.25;;;0.10;;
23990;SDS011;12205;50.600;4.608;2023-04-01T17:05:03;0.80;;;0.20;;
23990;SDS011;12205;50.600;4.608;2023-04-01T17:07:37;0.98;;;0.20;;
23990;SDS011;12205;50.600;4.608;2023-04-01T17:13:23;1.30;;;0.25;;
23990;SDS011;12205;50.600;4.608;2023-04-01T17:16:14;2.28;;;0.30;;
23990;SDS011;12205;50.600;4.608;2023-04-01T17:18:58;1.83;;;0.28;;
23990;SDS011;12205;50.600;4.608;2023-04-01T17:21:46;1.15;;;0.20;;
23990;SDS011;12205;50.600;4.608;2023-04-01T17:24:32;1.52;;;0.38;;
23990;SDS011;12205;50.600;4.608;2023-04-01T17:27:21;0.35;;;0.13;;
23990;SDS011;12205;50.600;4.608;2023-04-01T17:30:08;0.82;;;0.25;;
23990;SDS011;12205;50.600;4.608;2023-04-01T17:36:26;1.55;;;0.30;;
23990;SDS011;12205;50.600;4.608;2023-04-01T17:39:13;3.78;;;0.40;;
23990;SDS011;12205;50.600;4.608;2023-04-01T17:42:04;1.02;;;0.30;;
23990;SDS011;12205;50.600;4.608;2023-04-01T17:44:44;1.42;;;0.30;;
23990;SDS011;12205;50.600;4.608;2023-04-01T17:47:29;1.52;;;0.38;;
23990;SDS011;12205;50.600;4.608;2023-04-01T17:50:10;1.38;;;0.30;;
23990;SDS011;12205;50.600;4.608;2023-04-01T17:52:51;0.63;;;0.10;;
23990;SDS011;12205;50.600;4.608;2023-04-01T17:55:43;1.73;;;0.38;;
23990;SDS011;12205;50.600;4.608;2023-04-01T17:58:28;2.10;;;0.30;;
23990;SDS011;12205;50.600;4.608;2023-04-01T18:01:08;1.73;;;0.38;;
23990;SDS011;12205;50.600;4.608;2023-04-01T18:04:11;1.10;;;0.30;;
23990;SDS011;12205;50.600;4.608;2023-04-01T18:07:04;2.67;;;0.35;;
23990;SDS011;12205;50.600;4.608;2023-04-01T18:09:53;0.80;;;0.30;;
23990;SDS011;12205;50.600;4.608;2023-04-01T18:12:40;2.65;;;0.30;;
23990;SDS011;12205;50.600;4.608;2023-04-01T18:15:31;0.65;;;0.30;;
23990;SDS011;12205;50.600;4.608;2023-04-01T18:18:10;0.93;;;0.40;;
23990;SDS011;12205;50.600;4.608;2023-04-01T18:21:02;1.23;;;0.30;;
23990;SDS011;12205;50.600;4.608;2023-04-01T18:23:39;3.50;;;0.40;;
23990;SDS011;12205;50.600;4.608;2023-04-01T18:26:18;2.83;;;0.50;;
23990;SDS011;12205;50.600;4.608;2023-04-01T18:28:49;1.92;;;0.47;;
23990;SDS011;12205;50.600;4.608;2023-04-01T18:31:24;1.52;;;0.40;;
23990;SDS011;12205;50.600;4.608;2023-04-01T18:34:06;3.22;;;0.57;;
23990;SDS011;12205;50.600;4.608;2023-04-01T18:36:43;2.05;;;0.55;;
23990;SDS011;12205;50.600;4.608;2023-04-01T18:39:16;1.52;;;0.40;;
23990;SDS011;12205;50.600;4.608;2023-04-01T18:41:54;1.20;;;0.40;;
23990;SDS011;12205;50.600;4.608;2023-04-01T18:44:36;1.77;;;0.47;;